< < Back
Terminal Aerodrome Forecast


Current Version              Previous Versions:   1  2  3  4  5  6  7  8  9  

Terminal Aerodrome Forecast

783
FTUS42 KJAX 231000 AAD
TAFGNV
TAF AMD
KGNV 231003Z 2310/2406 04004KT P6SM VCSH BKN005 OVC015
     FM231600 05010KT P6SM VCSH BKN025 BKN050
     FM240200 02006KT P6SM SCT025 BKN050=



Latest METAR

268
SAUS70 KWBC 231200 RRI
MTRGNV
METAR KGNV 231153Z 03005KT 1/2SM +RA FG FEW005 OVC024 22/21 A3003 RMK
AO2 SLP167 P0040 60060 70068 T02170211 10217 20211 53015


USA.gov is the U.S. government's official web portal to all federal, state and local government web resources and services.